createdAt,value
2023-03-13T00:01:57.664Z,92.70
2023-03-13T00:04:25.563Z,92.69
2023-03-13T00:06:53.050Z,92.56
2023-03-13T00:09:20.856Z,92.36
2023-03-13T00:11:48.318Z,92.28
2023-03-13T00:14:15.771Z,92.06
2023-03-13T00:16:43.519Z,91.98
2023-03-13T00:19:11.350Z,92.17
2023-03-13T00:21:38.617Z,92.05
2023-03-13T00:24:06.027Z,91.84
2023-03-13T00:26:33.490Z,91.46
2023-03-13T00:29:01.002Z,91.38
2023-03-13T00:31:30.743Z,91.77
2023-03-13T00:34:00.818Z,91.91
2023-03-13T00:36:33.688Z,91.88
2023-03-13T00:39:05.666Z,91.94
2023-03-13T00:41:37.098Z,92.42
2023-03-13T00:44:06.428Z,92.33
2023-03-13T00:46:33.761Z,92.25
2023-03-13T00:49:01.382Z,92.20
2023-03-13T00:51:29.191Z,92.22
2023-03-13T00:54:00.501Z,92.05
2023-03-13T00:56:28.936Z,92.01
2023-03-13T00:58:56.489Z,92.28
2023-03-13T01:01:30.206Z,92.05
2023-03-13T01:04:01.660Z,92.09
2023-03-13T01:06:33.178Z,92.46
2023-03-13T01:09:02.141Z,92.70
2023-03-13T01:11:32.555Z,92.38
2023-03-13T01:14:06.324Z,92.21
2023-03-13T01:16:35.611Z,91.93
2023-03-13T01:19:13.128Z,91.44
2023-03-13T01:21:42.609Z,91.58
2023-03-13T01:24:10.393Z,91.27
2023-03-13T01:26:38.749Z,91.33
2023-03-13T01:29:06.162Z,91.26
2023-03-13T01:31:35.725Z,91.37
2023-03-13T01:34:07.038Z,91.07
2023-03-13T01:36:37.215Z,90.62
2023-03-13T01:39:06.304Z,90.18
2023-03-13T01:41:33.511Z,90.11
2023-03-13T01:44:01.798Z,89.68
2023-03-13T01:46:33.935Z,89.52
2023-03-13T01:49:36.603Z,89.19
2023-03-13T01:52:28.477Z,89.89
2023-03-13T01:55:09.678Z,89.30
2023-03-13T01:57:44.636Z,89.62
2023-03-13T02:00:20.576Z,89.54
2023-03-13T02:02:52.272Z,90.05
2023-03-13T02:05:25.376Z,90.35
2023-03-13T02:08:01.070Z,91.88
2023-03-13T02:10:31.749Z,92.09
2023-03-13T02:13:01.224Z,92.87
2023-03-13T02:15:29.629Z,92.94
2023-03-13T02:17:57.954Z,92.58
2023-03-13T02:20:25.732Z,93.01
2023-03-13T02:23:21.730Z,91.80
2023-03-13T02:25:51.739Z,90.42
2023-03-13T02:28:33.561Z,89.31
2023-03-13T02:31:04.512Z,89.67
2023-03-13T02:33:37.123Z,89.96
2023-03-13T02:36:07.376Z,90.75
2023-03-13T02:39:00.456Z,90.14
2023-03-13T02:41:30.097Z,90.02
2023-03-13T02:43:59.748Z,90.04
2023-03-13T02:46:27.389Z,89.63
2023-03-13T02:48:57.270Z,89.57
2023-03-13T02:51:42.848Z,89.66
2023-03-13T02:54:18.682Z,90.23
2023-03-13T02:56:49.599Z,90.59
2023-03-13T02:59:17.393Z,91.15
2023-03-13T03:01:46.788Z,93.94
2023-03-13T03:04:14.125Z,95.22
2023-03-13T03:06:41.658Z,94.97
2023-03-13T03:09:09.348Z,94.49
2023-03-13T03:11:38.731Z,93.71
2023-03-13T03:14:10.530Z,93.66
2023-03-13T03:16:42.974Z,95.70
2023-03-13T03:19:12.854Z,96.83
2023-03-13T03:21:40.863Z,97.70
2023-03-13T03:24:08.669Z,100.00
2023-03-13T03:26:39.337Z,100.00
2023-03-13T03:29:13.713Z,100.00
2023-03-13T03:31:42.002Z,100.00
2023-03-13T03:34:09.964Z,99.23
2023-03-13T03:36:37.336Z,99.22
2023-03-13T03:39:06.217Z,99.05
2023-03-13T03:41:34.673Z,97.79
2023-03-13T03:44:02.477Z,95.99
2023-03-13T03:46:40.166Z,94.34
2023-03-13T03:49:09.849Z,94.03
2023-03-13T03:51:37.468Z,95.58
2023-03-13T03:54:06.318Z,95.86
2023-03-13T03:56:34.168Z,95.30
2023-03-13T03:59:02.004Z,94.75
2023-03-13T04:01:48.768Z,95.44
2023-03-13T04:04:21.530Z,95.74
2023-03-13T04:06:53.514Z,95.06
2023-03-13T04:09:21.644Z,95.15
2023-03-13T04:11:49.262Z,95.35
2023-03-13T04:14:16.519Z,95.42
2023-03-13T04:16:44.387Z,94.68
2023-03-13T04:19:14.381Z,95.15
2023-03-13T04:21:43.545Z,96.59
2023-03-13T04:24:15.283Z,96.44
2023-03-13T04:26:44.685Z,96.85
2023-03-13T04:29:12.351Z,96.25
2023-03-13T04:31:58.155Z,96.34
2023-03-13T04:34:44.356Z,98.08
2023-03-13T04:37:28.865Z,100.00
2023-03-13T04:40:34.595Z,100.00
2023-03-13T04:43:25.600Z,100.00
2023-03-13T04:46:15.857Z,100.00
2023-03-13T04:49:03.736Z,100.00
2023-03-13T04:52:10.080Z,100.00
2023-03-13T04:54:53.167Z,100.00
2023-03-13T04:57:38.570Z,100.00
2023-03-13T05:00:41.483Z,100.00
2023-03-13T05:03:31.806Z,100.00
2023-03-13T05:06:09.945Z,100.00
2023-03-13T05:08:56.428Z,100.00
2023-03-13T05:11:46.704Z,100.00
2023-03-13T05:14:26.077Z,100.00
2023-03-13T05:17:13.284Z,100.00
2023-03-13T05:19:59.961Z,100.00
2023-03-13T05:22:50.464Z,100.00
2023-03-13T05:25:41.202Z,100.00
2023-03-13T05:28:31.386Z,100.00
2023-03-13T05:31:17.854Z,100.00
2023-03-13T05:34:04.409Z,100.00
2023-03-13T05:36:55.092Z,100.00
2023-03-13T05:39:34.847Z,100.00
2023-03-13T05:42:19.145Z,100.00
2023-03-13T05:45:09.444Z,97.98
2023-03-13T05:47:45.880Z,96.39
2023-03-13T05:50:33.356Z,94.00
2023-03-13T05:53:19.322Z,91.49
2023-03-13T05:56:15.430Z,88.15
2023-03-13T05:58:46.160Z,85.08
2023-03-13T06:01:31.989Z,83.54
2023-03-13T06:04:13.535Z,80.27
2023-03-13T06:06:41.725Z,78.83
2023-03-13T06:09:12.065Z,77.05
2023-03-13T06:11:40.337Z,75.87
2023-03-13T06:14:08.820Z,73.70
2023-03-13T06:16:42.187Z,72.85
2023-03-13T06:19:16.250Z,71.12
2023-03-13T06:21:44.384Z,70.71
2023-03-13T06:24:12.401Z,71.58
2023-03-13T06:26:40.161Z,71.62
2023-03-13T06:29:08.001Z,71.89
2023-03-13T06:31:36.508Z,71.74
2023-03-13T06:34:03.821Z,71.59
2023-03-13T06:36:31.785Z,71.97
2023-03-13T06:38:59.180Z,71.29
2023-03-13T06:41:28.016Z,71.44
2023-03-13T06:43:56.088Z,71.30
2023-03-13T06:46:25.109Z,70.11
2023-03-13T06:48:53.391Z,69.79
2023-03-13T06:51:22.483Z,68.92
2023-03-13T06:53:52.568Z,66.95
2023-03-13T06:56:22.020Z,66.13
2023-03-13T06:58:49.837Z,64.62
2023-03-13T07:01:18.327Z,63.51
2023-03-13T07:03:47.175Z,62.67
2023-03-13T07:06:16.584Z,62.65
2023-03-13T07:08:44.584Z,63.17
2023-03-13T07:11:14.076Z,62.68
2023-03-13T07:13:41.723Z,62.88
2023-03-13T07:16:12.421Z,63.20
2023-03-13T07:18:45.084Z,62.14
2023-03-13T07:21:13.251Z,61.59
2023-03-13T07:23:41.176Z,60.48
2023-03-13T07:26:12.438Z,61.67
2023-03-13T07:28:39.970Z,59.59
2023-03-13T07:31:13.859Z,59.28
2023-03-13T07:33:41.936Z,58.94
2023-03-13T07:36:10.538Z,58.62
2023-03-13T07:38:38.899Z,58.93
2023-03-13T07:41:07.188Z,57.98
2023-03-13T07:43:34.887Z,57.89
2023-03-13T07:46:06.099Z,57.69
2023-03-13T07:48:40.307Z,57.72
2023-03-13T07:51:12.888Z,54.58
2023-03-13T07:53:41.039Z,55.61
2023-03-13T07:56:12.346Z,53.79
2023-03-13T07:58:42.073Z,54.01
2023-03-13T08:01:15.658Z,55.12
2023-03-13T08:03:46.435Z,56.29
2023-03-13T08:06:19.448Z,56.22
2023-03-13T08:08:48.258Z,56.09
2023-03-13T08:11:21.786Z,55.85
2023-03-13T08:13:52.784Z,56.90
2023-03-13T08:16:30.356Z,57.04
2023-03-13T08:18:59.653Z,56.43
2023-03-13T08:21:31.807Z,54.94
2023-03-13T08:24:07.752Z,54.15
2023-03-13T08:26:38.214Z,55.11
2023-03-13T08:29:09.438Z,53.82
2023-03-13T08:31:43.196Z,55.35
2023-03-13T08:34:13.030Z,53.46
2023-03-13T08:36:41.722Z,53.59
2023-03-13T08:39:17.119Z,54.28
2023-03-13T08:41:45.110Z,55.13
2023-03-13T08:44:15.972Z,55.91
2023-03-13T08:46:44.763Z,56.04
2023-03-13T08:49:13.646Z,54.78
2023-03-13T08:51:41.544Z,54.57
2023-03-13T08:54:09.001Z,55.25
2023-03-13T08:56:38.109Z,53.77
2023-03-13T08:59:07.080Z,54.53
2023-03-13T09:01:36.020Z,52.89
2023-03-13T09:04:05.667Z,53.35
2023-03-13T09:06:34.861Z,54.71
2023-03-13T09:09:03.962Z,53.32
2023-03-13T09:11:31.868Z,52.58
2023-03-13T09:13:59.900Z,53.76
2023-03-13T09:16:32.754Z,53.60
2023-03-13T09:19:00.902Z,50.56
2023-03-13T09:21:31.334Z,50.23
2023-03-13T09:23:59.420Z,49.83
2023-03-13T09:26:28.397Z,49.59
2023-03-13T09:28:56.960Z,48.79
2023-03-13T09:31:27.414Z,50.91
2023-03-13T09:33:55.014Z,51.17
2023-03-13T09:36:26.937Z,50.30
2023-03-13T09:38:56.932Z,48.99
2023-03-13T09:41:38.019Z,49.51
2023-03-13T09:44:19.965Z,49.35
2023-03-13T09:47:05.519Z,53.33
2023-03-13T09:49:41.904Z,51.22
2023-03-13T09:52:26.117Z,50.51
2023-03-13T09:55:03.445Z,50.89
2023-03-13T09:57:57.220Z,53.22
2023-03-13T10:00:38.716Z,53.06
2023-03-13T10:03:18.844Z,50.88
2023-03-13T10:06:00.734Z,50.75
2023-03-13T10:08:32.601Z,50.75
2023-03-13T10:11:10.663Z,51.68
2023-03-13T10:13:46.601Z,51.47
2023-03-13T10:16:49.297Z,50.90
2023-03-13T10:19:19.282Z,50.32
2023-03-13T10:21:54.273Z,51.33
2023-03-13T10:24:50.869Z,50.15
2023-03-13T10:27:18.711Z,51.39
2023-03-13T10:29:46.549Z,51.62
2023-03-13T10:32:17.268Z,52.59
2023-03-13T10:34:57.271Z,50.61
2023-03-13T10:37:30.458Z,52.32
2023-03-13T10:40:23.894Z,50.99
2023-03-13T10:42:53.996Z,51.47
2023-03-13T10:45:25.334Z,51.58
2023-03-13T10:47:57.905Z,52.43
2023-03-13T10:50:26.170Z,50.77
2023-03-13T10:52:55.337Z,49.65
2023-03-13T10:55:26.670Z,50.29
2023-03-13T10:58:02.001Z,51.63
2023-03-13T11:00:31.940Z,53.00
2023-03-13T11:02:59.512Z,49.94
2023-03-13T11:05:32.892Z,48.78
2023-03-13T11:08:12.990Z,48.67
2023-03-13T11:10:53.420Z,49.52
2023-03-13T11:13:44.857Z,51.80
2023-03-13T11:16:27.060Z,51.15
2023-03-13T11:19:03.675Z,51.82
2023-03-13T11:21:42.590Z,50.45
2023-03-13T11:24:26.277Z,49.83
2023-03-13T11:27:35.716Z,50.44
2023-03-13T11:30:12.458Z,48.65
2023-03-13T11:32:44.272Z,50.26
2023-03-13T11:35:51.600Z,48.48
2023-03-13T11:38:35.886Z,49.00
2023-03-13T11:41:31.003Z,51.40
2023-03-13T11:44:05.177Z,51.18
2023-03-13T11:47:29.321Z,51.88
2023-03-13T11:50:06.325Z,51.61
2023-03-13T11:52:46.808Z,49.99
2023-03-13T11:55:56.451Z,49.97
2023-03-13T11:58:32.567Z,51.09
2023-03-13T12:01:06.497Z,51.95
2023-03-13T12:03:48.899Z,48.69
2023-03-13T14:03:57.613Z,58.32
2023-03-13T14:06:30.198Z,59.03
2023-03-13T14:09:24.997Z,58.67
2023-03-13T14:15:36.977Z,56.20
2023-03-13T14:18:25.338Z,56.50
2023-03-13T14:21:08.087Z,56.85
2023-03-13T14:23:43.187Z,56.62
2023-03-13T14:26:29.646Z,56.75
2023-03-13T14:29:08.164Z,56.11
2023-03-13T14:31:43.874Z,56.11
2023-03-13T14:34:17.043Z,56.95
2023-03-13T14:36:49.775Z,56.16
2023-03-13T14:39:46.521Z,56.47
2023-03-13T14:42:17.859Z,55.96
2023-03-13T14:44:51.732Z,56.42
2023-03-13T14:47:21.738Z,56.67
2023-03-13T14:50:05.521Z,56.54
2023-03-13T14:52:41.122Z,57.61
2023-03-13T14:55:34.851Z,57.07
2023-03-13T14:58:08.836Z,57.36
2023-03-13T15:00:43.951Z,57.01
2023-03-13T15:03:23.142Z,58.29
2023-03-13T15:06:13.422Z,56.59
2023-03-13T15:08:45.572Z,57.06
2023-03-13T15:11:29.592Z,57.55
2023-03-13T15:13:59.401Z,57.65
2023-03-13T15:16:31.462Z,58.17
2023-03-13T15:18:59.194Z,58.37
2023-03-13T15:21:33.686Z,58.36
2023-03-13T15:24:12.455Z,58.93
2023-03-13T15:26:41.732Z,58.94
2023-03-13T15:29:12.146Z,59.18
2023-03-13T15:31:43.679Z,58.28
2023-03-13T15:34:15.228Z,58.91
2023-03-13T15:36:43.916Z,59.50
2023-03-13T15:39:20.855Z,59.79
2023-03-13T15:41:48.096Z,60.30
2023-03-13T15:44:17.273Z,60.53
2023-03-13T15:46:45.568Z,60.51
2023-03-13T15:49:15.115Z,61.06
2023-03-13T15:51:43.605Z,61.07
2023-03-13T15:54:12.625Z,60.68
2023-03-13T15:56:41.173Z,61.42
2023-03-13T15:59:13.265Z,61.39
2023-03-13T16:01:42.599Z,61.53
2023-03-13T16:04:12.599Z,61.95
2023-03-13T16:06:40.649Z,61.90
2023-03-13T16:09:08.399Z,62.74
2023-03-13T16:11:36.929Z,62.47
2023-03-13T16:14:04.837Z,63.21
2023-03-13T16:16:37.837Z,63.70
2023-03-13T16:19:08.158Z,64.12
2023-03-13T16:21:36.585Z,63.88
2023-03-13T16:24:04.665Z,63.91
2023-03-13T16:26:32.379Z,63.88
2023-03-13T16:28:59.643Z,64.50
2023-03-13T16:31:29.514Z,65.07
2023-03-13T16:33:58.372Z,65.42
2023-03-13T16:36:31.528Z,65.93
2023-03-13T16:39:00.112Z,65.68
2023-03-13T16:41:28.451Z,66.08
2023-03-13T16:43:56.604Z,66.11
2023-03-13T16:46:30.194Z,67.02
2023-03-13T16:48:58.687Z,67.82
2023-03-13T16:51:28.902Z,68.55
2023-03-13T16:54:00.466Z,69.50
2023-03-13T16:56:38.200Z,69.89
2023-03-13T16:59:10.650Z,70.44
2023-03-13T17:01:38.776Z,70.51
2023-03-13T17:04:07.033Z,70.60
2023-03-13T17:06:42.732Z,71.17
2023-03-13T17:09:16.804Z,71.98
2023-03-13T17:11:44.056Z,72.37
2023-03-13T17:14:11.830Z,73.04
2023-03-13T17:16:42.764Z,73.76
2023-03-13T17:19:17.192Z,74.62
2023-03-13T17:21:44.621Z,74.31
2023-03-13T17:24:11.953Z,74.39
2023-03-13T17:26:40.305Z,74.19
2023-03-13T17:29:08.902Z,74.24
2023-03-13T17:31:40.256Z,73.78
2023-03-13T17:34:08.646Z,72.62
2023-03-13T17:36:36.908Z,72.99
2023-03-13T17:39:09.022Z,72.81
2023-03-13T17:41:37.374Z,72.82
2023-03-13T17:44:04.995Z,72.14
2023-03-13T17:46:54.134Z,71.63
2023-03-13T17:49:21.326Z,71.25
2023-03-13T17:51:50.251Z,70.86
2023-03-13T17:54:18.955Z,71.75
2023-03-13T17:56:45.994Z,71.55
2023-03-13T17:59:18.273Z,71.19
2023-03-13T18:01:45.948Z,70.75
2023-03-13T18:04:13.775Z,71.04
2023-03-13T18:06:43.876Z,71.07
2023-03-13T18:09:21.545Z,72.16
2023-03-13T18:11:49.975Z,71.94
2023-03-13T18:14:17.296Z,71.80
2023-03-13T18:16:48.190Z,72.20
2023-03-13T18:19:17.860Z,72.98
2023-03-13T18:21:46.747Z,74.03
2023-03-13T18:24:15.717Z,74.06
2023-03-13T18:26:47.006Z,74.55
2023-03-13T18:29:26.977Z,74.87
2023-03-13T18:31:59.293Z,75.16
2023-03-13T18:34:28.068Z,75.77
2023-03-13T18:36:55.842Z,76.04
2023-03-13T18:39:23.314Z,76.36
2023-03-13T18:41:53.342Z,76.96
2023-03-13T18:44:21.215Z,76.59
2023-03-13T18:46:48.462Z,77.24
2023-03-13T18:49:20.326Z,76.72
2023-03-13T18:51:48.990Z,77.58
2023-03-13T18:54:16.486Z,77.42
2023-03-13T18:56:45.370Z,77.61
2023-03-13T18:59:16.224Z,77.45
2023-03-13T19:01:43.959Z,77.51
2023-03-13T19:04:11.262Z,77.58
2023-03-13T19:06:40.267Z,77.20
2023-03-13T19:09:41.202Z,76.98
2023-03-13T19:12:04.945Z,77.29
2023-03-13T19:14:32.947Z,76.62
2023-03-13T19:17:00.214Z,76.45
2023-03-13T19:19:27.608Z,76.49
2023-03-13T19:21:57.912Z,76.62
2023-03-13T19:24:27.825Z,76.69
2023-03-13T19:26:59.061Z,76.19
2023-03-13T19:29:28.766Z,76.36
2023-03-13T19:31:56.092Z,76.88
2023-03-13T19:34:24.007Z,76.22
2023-03-13T19:36:53.879Z,76.41
2023-03-13T19:39:26.756Z,76.73
2023-03-13T19:41:57.128Z,77.33
2023-03-13T19:44:27.680Z,77.17
2023-03-13T19:46:56.497Z,77.33
2023-03-13T19:49:23.814Z,76.97
2023-03-13T19:51:51.434Z,77.56
2023-03-13T19:54:18.822Z,77.26
2023-03-13T19:56:50.059Z,77.31
2023-03-13T19:59:20.088Z,77.50
2023-03-13T20:01:47.804Z,77.60
2023-03-13T20:04:15.666Z,77.64
2023-03-13T20:06:46.244Z,77.47
2023-03-13T20:09:16.952Z,77.79
2023-03-13T20:11:45.146Z,77.26
2023-03-13T20:14:14.582Z,77.43
2023-03-13T20:16:46.471Z,77.88
2023-03-13T20:19:19.319Z,78.02
2023-03-13T20:21:47.631Z,78.44
2023-03-13T20:24:15.894Z,78.08
2023-03-13T20:26:45.139Z,78.38
2023-03-13T20:29:12.780Z,77.97
2023-03-13T20:31:40.488Z,78.33
2023-03-13T20:34:09.282Z,78.27
2023-03-13T20:36:37.567Z,78.64
2023-03-13T20:39:05.801Z,78.16
2023-03-13T20:41:34.881Z,78.11
2023-03-13T20:44:02.645Z,78.03
2023-03-13T20:46:30.930Z,77.73
2023-03-13T20:48:59.065Z,77.84
2023-03-13T20:51:28.024Z,77.98
2023-03-13T20:53:55.507Z,77.44
2023-03-13T20:56:23.705Z,76.62
2023-03-13T20:58:50.855Z,76.32
2023-03-13T21:01:22.363Z,75.24
2023-03-13T21:03:49.693Z,74.58
2023-03-13T21:06:19.207Z,74.23
2023-03-13T21:08:47.694Z,73.24
2023-03-13T21:11:18.316Z,72.75
2023-03-13T21:13:46.553Z,72.78
2023-03-13T21:16:14.001Z,72.26
2023-03-13T21:18:41.498Z,72.27
2023-03-13T21:21:13.923Z,72.56
2023-03-13T21:23:43.978Z,72.59
2023-03-13T21:26:11.966Z,72.54
2023-03-13T21:28:40.358Z,73.00
2023-03-13T21:31:18.190Z,73.16
2023-03-13T21:33:47.724Z,72.38
2023-03-13T21:36:17.554Z,72.12
2023-03-13T21:38:45.377Z,72.21
2023-03-13T21:41:18.367Z,72.18
2023-03-13T21:43:45.913Z,71.32
2023-03-13T21:46:17.540Z,70.69
2023-03-13T21:51:18.276Z,69.77
2023-03-13T21:53:49.152Z,70.22
2023-03-13T21:56:17.487Z,70.22
2023-03-13T21:58:45.636Z,69.77
2023-03-13T22:01:15.008Z,70.18
2023-03-13T22:03:44.195Z,70.32
2023-03-13T22:06:17.870Z,69.91
2023-03-13T22:08:45.435Z,69.80
2023-03-13T22:11:12.644Z,69.96
2023-03-13T22:13:40.103Z,69.68
2023-03-13T22:16:07.992Z,69.53
2023-03-13T22:18:35.459Z,69.08
2023-03-13T22:21:02.749Z,69.75
2023-03-13T22:23:30.171Z,69.97
2023-03-13T22:25:58.850Z,70.16
2023-03-13T22:28:26.756Z,69.51
2023-03-13T22:30:54.151Z,69.90
2023-03-13T22:33:21.541Z,70.08
2023-03-13T22:35:55.057Z,70.90
2023-03-13T22:38:23.682Z,71.12
2023-03-13T22:41:03.303Z,71.35
2023-03-13T22:43:31.319Z,70.77
2023-03-13T22:45:59.635Z,71.50
2023-03-13T22:48:27.659Z,70.61
2023-03-13T22:51:13.515Z,71.32
2023-03-13T22:53:43.754Z,70.59
2023-03-13T22:56:12.777Z,71.17
2023-03-13T22:58:41.083Z,71.28
2023-03-13T23:01:11.511Z,71.93
2023-03-13T23:03:41.009Z,71.45
2023-03-13T23:06:14.580Z,72.38
2023-03-13T23:08:43.872Z,72.01
2023-03-13T23:11:11.422Z,71.81
2023-03-13T23:13:38.992Z,72.96
2023-03-13T23:16:11.367Z,72.48
2023-03-13T23:18:39.367Z,73.22
2023-03-13T23:21:08.952Z,74.21
2023-03-13T23:23:37.308Z,74.29
2023-03-13T23:26:07.841Z,74.08
2023-03-13T23:28:36.832Z,74.17
2023-03-13T23:31:16.151Z,73.60
2023-03-13T23:33:45.379Z,74.35
2023-03-13T23:36:16.997Z,74.71
2023-03-13T23:38:49.771Z,74.59
2023-03-13T23:41:17.071Z,74.42
2023-03-13T23:43:45.036Z,75.71
2023-03-13T23:46:22.173Z,75.73
2023-03-13T23:48:53.942Z,75.92
2023-03-13T23:51:21.194Z,75.55
2023-03-13T23:53:48.574Z,76.90
2023-03-13T23:56:16.098Z,76.71
2023-03-13T23:58:43.921Z,76.56
